sensor_id;sensor_type;location;lat;lon;timestamp;pressure;altitude;pressure_sealevel;temperature;humidity
5996;BME280;3026;53.612;7.278;2023-03-26T00:01:59;100322.63;;;7.53;100.00
5996;BME280;3026;53.612;7.278;2023-03-26T00:04:26;100334.31;;;7.54;100.00
5996;BME280;3026;53.612;7.278;2023-03-26T00:06:54;100342.94;;;7.49;100.00
5996;BME280;3026;53.612;7.278;2023-03-26T00:09:21;100339.22;;;7.50;100.00
5996;BME280;3026;53.612;7.278;2023-03-26T00:11:48;100336.16;;;7.45;100.00
5996;BME280;3026;53.612;7.278;2023-03-26T00:14:15;100341.59;;;7.45;100.00
5996;BME280;3026;53.612;7.278;2023-03-26T00:16:44;100341.91;;;7.42;100.00
5996;BME280;3026;53.612;7.278;2023-03-26T00:19:12;100352.44;;;7.45;100.00
5996;BME280;3026;53.612;7.278;2023-03-26T00:21:39;100359.88;;;7.43;100.00
5996;BME280;3026;53.612;7.278;2023-03-26T00:24:08;100354.13;;;7.46;100.00
5996;BME280;3026;53.612;7.278;2023-03-26T00:26:36;100357.00;;;7.45;100.00
5996;BME280;3026;53.612;7.278;2023-03-26T00:29:05;100369.38;;;7.47;100.00
5996;BME280;3026;53.612;7.278;2023-03-26T00:31:34;100369.56;;;7.46;100.00
5996;BME280;3026;53.612;7.278;2023-03-26T00:34:03;100369.03;;;7.42;100.00
5996;BME280;3026;53.612;7.278;2023-03-26T00:36:31;100368.03;;;7.43;100.00
5996;BME280;3026;53.612;7.278;2023-03-26T00:39:00;100364.78;;;7.40;100.00
5996;BME280;3026;53.612;7.278;2023-03-26T00:41:29;100368.50;;;7.39;100.00
5996;BME280;3026;53.612;7.278;2023-03-26T00:43:57;100367.81;;;7.37;100.00
5996;BME280;3026;53.612;7.278;2023-03-26T00:46:26;100368.00;;;7.35;100.00
5996;BME280;3026;53.612;7.278;2023-03-26T00:48:53;100372.91;;;7.31;100.00
5996;BME280;3026;53.612;7.278;2023-03-26T00:51:25;100356.06;;;7.28;100.00
5996;BME280;3026;53.612;7.278;2023-03-26T00:53:52;100372.69;;;7.25;100.00
5996;BME280;3026;53.612;7.278;2023-03-26T00:56:19;100381.50;;;7.27;100.00
5996;BME280;3026;53.612;7.278;2023-03-26T00:58:46;100369.97;;;7.25;100.00
5996;BME280;3026;53.612;7.278;2023-03-26T01:01:17;100367.75;;;7.20;100.00
5996;BME280;3026;53.612;7.278;2023-03-26T01:03:45;100371.84;;;7.24;100.00
5996;BME280;3026;53.612;7.278;2023-03-26T01:06:17;100364.72;;;7.23;100.00
5996;BME280;3026;53.612;7.278;2023-03-26T01:08:54;100365.56;;;7.24;100.00
5996;BME280;3026;53.612;7.278;2023-03-26T01:11:26;100366.91;;;7.20;100.00
5996;BME280;3026;53.612;7.278;2023-03-26T01:13:56;100366.91;;;7.20;100.00
5996;BME280;3026;53.612;7.278;2023-03-26T01:16:27;100374.19;;;7.19;100.00
5996;BME280;3026;53.612;7.278;2023-03-26T01:18:55;100373.34;;;7.19;100.00
5996;BME280;3026;53.612;7.278;2023-03-26T01:21:26;100364.50;;;7.17;100.00
5996;BME280;3026;53.612;7.278;2023-03-26T01:23:58;100367.22;;;7.17;100.00
5996;BME280;3026;53.612;7.278;2023-03-26T01:29:20;100369.91;;;7.17;100.00
5996;BME280;3026;53.612;7.278;2023-03-26T01:31:55;100359.06;;;7.17;100.00
5996;BME280;3026;53.612;7.278;2023-03-26T01:34:30;100367.09;;;7.18;100.00
5996;BME280;3026;53.612;7.278;2023-03-26T01:37:05;100365.34;;;7.17;100.00
5996;BME280;3026;53.612;7.278;2023-03-26T01:39:41;100368.94;;;7.18;100.00
5996;BME280;3026;53.612;7.278;2023-03-26T01:42:17;100363.81;;;7.15;100.00
5996;BME280;3026;53.612;7.278;2023-03-26T01:44:51;100367.53;;;7.14;100.00
5996;BME280;3026;53.612;7.278;2023-03-26T01:47:20;100372.28;;;7.12;100.00
5996;BME280;3026;53.612;7.278;2023-03-26T01:49:47;100350.09;;;7.08;100.00
5996;BME280;3026;53.612;7.278;2023-03-26T01:52:16;100360.59;;;7.11;100.00
5996;BME280;3026;53.612;7.278;2023-03-26T01:54:46;100355.34;;;7.10;100.00
5996;BME280;3026;53.612;7.278;2023-03-26T01:57:18;100359.75;;;7.11;100.00
5996;BME280;3026;53.612;7.278;2023-03-26T01:59:56;100364.16;;;7.12;100.00
5996;BME280;3026;53.612;7.278;2023-03-26T02:02:30;100364.84;;;7.14;100.00
5996;BME280;3026;53.612;7.278;2023-03-26T02:05:07;100377.38;;;7.15;100.00
5996;BME280;3026;53.612;7.278;2023-03-26T02:07:41;100366.53;;;7.15;100.00
5996;BME280;3026;53.612;7.278;2023-03-26T02:10:14;100377.53;;;7.13;100.00
5996;BME280;3026;53.612;7.278;2023-03-26T02:12:42;100369.06;;;7.16;100.00
5996;BME280;3026;53.612;7.278;2023-03-26T02:15:12;100372.63;;;7.17;100.00
5996;BME280;3026;53.612;7.278;2023-03-26T02:17:39;100375.22;;;7.18;100.00
5996;BME280;3026;53.612;7.278;2023-03-26T02:20:06;100377.06;;;7.18;100.00
5996;BME280;3026;53.612;7.278;2023-03-26T02:22:35;100373.66;;;7.16;100.00
5996;BME280;3026;53.612;7.278;2023-03-26T02:25:07;100368.56;;;7.13;100.00
5996;BME280;3026;53.612;7.278;2023-03-26T02:27:36;100372.63;;;7.09;100.00
5996;BME280;3026;53.612;7.278;2023-03-26T02:30:03;100379.19;;;7.06;100.00
5996;BME280;3026;53.612;7.278;2023-03-26T02:32:30;100360.94;;;7.08;100.00
5996;BME280;3026;53.612;7.278;2023-03-26T02:34:59;100370.91;;;7.08;100.00
5996;BME280;3026;53.612;7.278;2023-03-26T02:37:26;100359.34;;;7.06;100.00
5996;BME280;3026;53.612;7.278;2023-03-26T02:39:54;100356.53;;;7.07;100.00
5996;BME280;3026;53.612;7.278;2023-03-26T02:42:21;100373.94;;;7.05;100.00
5996;BME280;3026;53.612;7.278;2023-03-26T02:44:50;100353.91;;;6.97;100.00
5996;BME280;3026;53.612;7.278;2023-03-26T02:47:17;100367.81;;;7.02;100.00
5996;BME280;3026;53.612;7.278;2023-03-26T02:49:44;100361.38;;;7.03;100.00
5996;BME280;3026;53.612;7.278;2023-03-26T02:52:11;100354.94;;;7.05;100.00
5996;BME280;3026;53.612;7.278;2023-03-26T02:54:41;100346.81;;;7.05;100.00
5996;BME280;3026;53.612;7.278;2023-03-26T02:57:08;100359.34;;;7.06;100.00
5996;BME280;3026;53.612;7.278;2023-03-26T02:59:35;100352.41;;;7.03;100.00
5996;BME280;3026;53.612;7.278;2023-03-26T03:02:04;100347.47;;;6.98;100.00
5996;BME280;3026;53.612;7.278;2023-03-26T03:04:31;100360.53;;;6.95;100.00
5996;BME280;3026;53.612;7.278;2023-03-26T03:06:58;100361.66;;;6.92;100.00
5996;BME280;3026;53.612;7.278;2023-03-26T03:09:25;100364.03;;;6.87;100.00
5996;BME280;3026;53.612;7.278;2023-03-26T03:11:52;100356.91;;;6.86;100.00
5996;BME280;3026;53.612;7.278;2023-03-26T03:14:19;100358.94;;;6.84;100.00
5996;BME280;3026;53.612;7.278;2023-03-26T03:16:46;100348.38;;;6.81;100.00
5996;BME280;3026;53.612;7.278;2023-03-26T03:19:14;100355.84;;;6.79;100.00
5996;BME280;3026;53.612;7.278;2023-03-26T03:21:41;100358.72;;;6.78;100.00
5996;BME280;3026;53.612;7.278;2023-03-26T03:24:09;100347.34;;;6.74;100.00
5996;BME280;3026;53.612;7.278;2023-03-26T03:26:38;100338.84;;;6.69;100.00
5996;BME280;3026;53.612;7.278;2023-03-26T03:29:05;100344.25;;;6.69;100.00
5996;BME280;3026;53.612;7.278;2023-03-26T03:31:32;100333.75;;;6.66;100.00
5996;BME280;3026;53.612;7.278;2023-03-26T03:33:59;100348.91;;;6.59;100.00
5996;BME280;3026;53.612;7.278;2023-03-26T03:36:27;100347.06;;;6.59;100.00
5996;BME280;3026;53.612;7.278;2023-03-26T03:38:54;100327.56;;;6.56;100.00
5996;BME280;3026;53.612;7.278;2023-03-26T03:41:26;100333.31;;;6.53;100.00
5996;BME280;3026;53.612;7.278;2023-03-26T03:43:53;100337.03;;;6.52;100.00
5996;BME280;3026;53.612;7.278;2023-03-26T03:46:20;100341.78;;;6.50;100.00
5996;BME280;3026;53.612;7.278;2023-03-26T03:48:47;100337.50;;;6.47;100.00
5996;BME280;3026;53.612;7.278;2023-03-26T03:51:14;100339.34;;;6.47;100.00
5996;BME280;3026;53.612;7.278;2023-03-26T03:53:44;100340.38;;;6.46;100.00
5996;BME280;3026;53.612;7.278;2023-03-26T03:56:11;100341.03;;;6.39;100.00
5996;BME280;3026;53.612;7.278;2023-03-26T03:58:39;100343.72;;;6.39;100.00
5996;BME280;3026;53.612;7.278;2023-03-26T04:01:06;100349.44;;;6.36;100.00
5996;BME280;3026;53.612;7.278;2023-03-26T04:03:33;100360.59;;;6.33;100.00
5996;BME280;3026;53.612;7.278;2023-03-26T04:06:03;100357.50;;;6.28;100.00
5996;BME280;3026;53.612;7.278;2023-03-26T04:08:31;100362.38;;;6.25;100.00
5996;BME280;3026;53.612;7.278;2023-03-26T04:11:00;100364.56;;;6.21;100.00
5996;BME280;3026;53.612;7.278;2023-03-26T04:13:27;100369.59;;;6.16;100.00
5996;BME280;3026;53.612;7.278;2023-03-26T04:15:55;100360.78;;;6.14;100.00
5996;BME280;3026;53.612;7.278;2023-03-26T04:18:22;100363.63;;;6.12;100.00
5996;BME280;3026;53.612;7.278;2023-03-26T04:20:48;100359.38;;;6.10;100.00
5996;BME280;3026;53.612;7.278;2023-03-26T04:23:16;100361.06;;;6.11;100.00
5996;BME280;3026;53.612;7.278;2023-03-26T04:25:45;100359.22;;;6.11;100.00
5996;BME280;3026;53.612;7.278;2023-03-26T04:28:22;100359.38;;;6.10;100.00
5996;BME280;3026;53.612;7.278;2023-03-26T04:30:52;100366.81;;;6.08;100.00
5996;BME280;3026;53.612;7.278;2023-03-26T04:33:20;100366.81;;;6.08;100.00
5996;BME280;3026;53.612;7.278;2023-03-26T04:35:50;100359.69;;;6.07;100.00
5996;BME280;3026;53.612;7.278;2023-03-26T04:38:17;100358.84;;;6.06;100.00
5996;BME280;3026;53.612;7.278;2023-03-26T04:40:44;100355.97;;;6.08;100.00
5996;BME280;3026;53.612;7.278;2023-03-26T04:43:15;100359.69;;;6.07;100.00
5996;BME280;3026;53.612;7.278;2023-03-26T04:45:43;100365.09;;;6.07;100.00
5996;BME280;3026;53.612;7.278;2023-03-26T04:48:12;100367.81;;;6.07;100.00
5996;BME280;3026;53.612;7.278;2023-03-26T04:50:40;100358.00;;;6.06;100.00
5996;BME280;3026;53.612;7.278;2023-03-26T04:53:08;100360.00;;;6.04;100.00
5996;BME280;3026;53.612;7.278;2023-03-26T04:55:41;100362.56;;;6.05;100.00
5996;BME280;3026;53.612;7.278;2023-03-26T04:58:10;100367.72;;;5.99;100.00
5996;BME280;3026;53.612;7.278;2023-03-26T05:00:40;100357.47;;;6.02;100.00
5996;BME280;3026;53.612;7.278;2023-03-26T05:03:08;100361.31;;;6.00;100.00
5996;BME280;3026;53.612;7.278;2023-03-26T05:05:36;100357.75;;;5.99;100.00
5996;BME280;3026;53.612;7.278;2023-03-26T05:08:03;100364.00;;;6.00;100.00
5996;BME280;3026;53.612;7.278;2023-03-26T05:10:30;100348.41;;;5.94;100.00
5996;BME280;3026;53.612;7.278;2023-03-26T05:12:57;100358.91;;;5.97;100.00
5996;BME280;3026;53.612;7.278;2023-03-26T05:15:24;100359.06;;;5.95;100.00
5996;BME280;3026;53.612;7.278;2023-03-26T05:17:52;100365.34;;;5.96;100.00
5996;BME280;3026;53.612;7.278;2023-03-26T05:20:22;100369.75;;;5.97;100.00
5996;BME280;3026;53.612;7.278;2023-03-26T05:22:49;100368.34;;;5.93;100.00
5996;BME280;3026;53.612;7.278;2023-03-26T05:25:16;100362.94;;;5.93;100.00
5996;BME280;3026;53.612;7.278;2023-03-26T05:27:44;100364.66;;;5.94;100.00
5996;BME280;3026;53.612;7.278;2023-03-26T05:30:13;100368.03;;;5.96;100.00
5996;BME280;3026;53.612;7.278;2023-03-26T05:32:40;100371.44;;;5.98;100.00
5996;BME280;3026;53.612;7.278;2023-03-26T05:35:09;100374.84;;;6.00;100.00
5996;BME280;3026;53.612;7.278;2023-03-26T05:37:36;100370.44;;;5.99;100.00
5996;BME280;3026;53.612;7.278;2023-03-26T05:40:04;100363.16;;;5.99;100.00
5996;BME280;3026;53.612;7.278;2023-03-26T05:42:36;100367.72;;;5.99;100.00
5996;BME280;3026;53.612;7.278;2023-03-26T05:45:04;100363.31;;;5.98;100.00
5996;BME280;3026;53.612;7.278;2023-03-26T05:47:31;100377.38;;;6.01;100.00
5996;BME280;3026;53.612;7.278;2023-03-26T05:49:58;100368.41;;;6.01;100.00
5996;BME280;3026;53.612;7.278;2023-03-26T05:52:27;100356.59;;;6.02;100.00
5996;BME280;3026;53.612;7.278;2023-03-26T05:54:55;100370.84;;;6.04;100.00
5996;BME280;3026;53.612;7.278;2023-03-26T05:57:22;100367.13;;;6.05;100.00
5996;BME280;3026;53.612;7.278;2023-03-26T05:59:53;100358.31;;;6.03;100.00
5996;BME280;3026;53.612;7.278;2023-03-26T06:02:20;100366.56;;;6.01;100.00
5996;BME280;3026;53.612;7.278;2023-03-26T06:04:47;100360.28;;;6.01;100.00
5996;BME280;3026;53.612;7.278;2023-03-26T06:07:15;100360.28;;;6.01;100.00
5996;BME280;3026;53.612;7.278;2023-03-26T06:09:43;100358.31;;;6.03;100.00
5996;BME280;3026;53.612;7.278;2023-03-26T06:12:10;100364.25;;;6.06;100.00
5996;BME280;3026;53.612;7.278;2023-03-26T06:14:37;100367.81;;;6.07;100.00
5996;BME280;3026;53.612;7.278;2023-03-26T06:17:04;100356.97;;;6.07;100.00
5996;BME280;3026;53.612;7.278;2023-03-26T06:19:32;100348.88;;;6.07;100.00
5996;BME280;3026;53.612;7.278;2023-03-26T06:21:58;100350.25;;;6.11;100.00
5996;BME280;3026;53.612;7.278;2023-03-26T06:24:25;100357.75;;;6.17;100.00
5996;BME280;3026;53.612;7.278;2023-03-26T06:26:54;100353.88;;;6.20;100.00
5996;BME280;3026;53.612;7.278;2023-03-26T06:29:20;100356.44;;;6.21;100.00
5996;BME280;3026;53.612;7.278;2023-03-26T06:31:47;100355.41;;;6.22;100.00
5996;BME280;3026;53.612;7.278;2023-03-26T06:34:15;100360.38;;;6.27;100.00
5996;BME280;3026;53.612;7.278;2023-03-26T06:36:42;100357.13;;;6.23;100.00
5996;BME280;3026;53.612;7.278;2023-03-26T06:39:09;100356.94;;;6.25;100.00
5996;BME280;3026;53.612;7.278;2023-03-26T06:41:35;100363.94;;;6.27;100.00
5996;BME280;3026;53.612;7.278;2023-03-26T06:44:04;100354.81;;;6.28;100.00
5996;BME280;3026;53.612;7.278;2023-03-26T06:46:31;100364.31;;;6.32;100.00
5996;BME280;3026;53.612;7.278;2023-03-26T06:48:58;100367.69;;;6.34;100.00
5996;BME280;3026;53.612;7.278;2023-03-26T06:51:25;100372.81;;;6.37;100.00
5996;BME280;3026;53.612;7.278;2023-03-26T06:53:52;100368.38;;;6.36;100.00
5996;BME280;3026;53.612;7.278;2023-03-26T06:56:19;100363.97;;;6.35;100.00
5996;BME280;3026;53.612;7.278;2023-03-26T06:58:46;100365.38;;;6.39;100.00
5996;BME280;3026;53.612;7.278;2023-03-26T07:01:14;100368.78;;;6.41;100.00
5996;BME280;3026;53.612;7.278;2023-03-26T07:03:41;100367.09;;;6.40;100.00
5996;BME280;3026;53.612;7.278;2023-03-26T07:06:08;100368.63;;;6.43;100.00
5996;BME280;3026;53.612;7.278;2023-03-26T07:08:35;100378.97;;;6.48;100.00
5996;BME280;3026;53.612;7.278;2023-03-26T07:11:02;100368.69;;;6.51;100.00
5996;BME280;3026;53.612;7.278;2023-03-26T07:13:29;100366.84;;;6.52;100.00
5996;BME280;3026;53.612;7.278;2023-03-26T07:15:56;100362.47;;;6.59;100.00
5996;BME280;3026;53.612;7.278;2023-03-26T07:18:24;100366.88;;;6.60;100.00
5996;BME280;3026;53.612;7.278;2023-03-26T07:20:52;100354.34;;;6.59;100.00
5996;BME280;3026;53.612;7.278;2023-03-26T07:23:19;100365.56;;;6.64;100.00
5996;BME280;3026;53.612;7.278;2023-03-26T07:25:47;100363.19;;;6.61;100.00
5996;BME280;3026;53.612;7.278;2023-03-26T07:28:21;100362.53;;;6.67;100.00
5996;BME280;3026;53.612;7.278;2023-03-26T07:30:57;100365.94;;;6.69;100.00
5996;BME280;3026;53.612;7.278;2023-03-26T07:33:31;100355.09;;;6.69;100.00
5996;BME280;3026;53.612;7.278;2023-03-26T07:36:09;100358.19;;;6.74;100.00
5996;BME280;3026;53.612;7.278;2023-03-26T07:38:46;100353.38;;;6.68;100.00
5996;BME280;3026;53.612;7.278;2023-03-26T07:41:23;100361.59;;;6.76;100.00
5996;BME280;3026;53.612;7.278;2023-03-26T07:44:05;100360.25;;;6.80;100.00
5996;BME280;3026;53.612;7.278;2023-03-26T07:46:38;100358.94;;;6.84;100.00
5996;BME280;3026;53.612;7.278;2023-03-26T07:49:09;100359.97;;;6.91;100.00
5996;BME280;3026;53.612;7.278;2023-03-26T07:51:37;100367.09;;;6.92;100.00
5996;BME280;3026;53.612;7.278;2023-03-26T07:54:05;100365.06;;;6.94;100.00
5996;BME280;3026;53.612;7.278;2023-03-26T07:56:35;100348.97;;;6.93;100.00
5996;BME280;3026;53.612;7.278;2023-03-26T07:59:20;100361.38;;;6.95;100.00
5996;BME280;3026;53.612;7.278;2023-03-26T08:02:11;100361.38;;;7.03;100.00
5996;BME280;3026;53.612;7.278;2023-03-26T08:05:01;100356.66;;;7.06;100.00
5996;BME280;3026;53.612;7.278;2023-03-26T08:07:41;100350.59;;;7.12;100.00
5996;BME280;3026;53.612;7.278;2023-03-26T08:10:16;100352.66;;;7.18;100.00
5996;BME280;3026;53.612;7.278;2023-03-26T08:12:51;100356.25;;;7.26;100.00
5996;BME280;3026;53.612;7.278;2023-03-26T08:15:25;100360.34;;;7.30;100.00
5996;BME280;3026;53.612;7.278;2023-03-26T08:18:00;100357.47;;;7.32;100.00
5996;BME280;3026;53.612;7.278;2023-03-26T08:20:37;100356.41;;;7.25;100.00
5996;BME280;3026;53.612;7.278;2023-03-26T08:23:14;100358.66;;;7.29;100.00
5996;BME280;3026;53.612;7.278;2023-03-26T08:25:50;100363.91;;;7.31;100.00
5996;BME280;3026;53.612;7.278;2023-03-26T08:28:27;100358.31;;;7.32;100.00
5996;BME280;3026;53.612;7.278;2023-03-26T08:31:00;100364.47;;;7.43;100.00
5996;BME280;3026;53.612;7.278;2023-03-26T08:33:29;100362.94;;;7.48;100.00
5996;BME280;3026;53.612;7.278;2023-03-26T08:35:58;100361.63;;;7.60;100.00
5996;BME280;3026;53.612;7.278;2023-03-26T08:38:25;100370.09;;;7.57;100.00
5996;BME280;3026;53.612;7.278;2023-03-26T08:44:27;100376.91;;;7.70;100.00
5996;BME280;3026;53.612;7.278;2023-03-26T08:47:20;100378.97;;;7.68;100.00
5996;BME280;3026;53.612;7.278;2023-03-26T08:50:19;100385.06;;;7.70;100.00
5996;BME280;3026;53.612;7.278;2023-03-26T08:53:13;100387.78;;;7.70;100.00
5996;BME280;3026;53.612;7.278;2023-03-26T08:55:51;100383.38;;;7.69;100.00
5996;BME280;3026;53.612;7.278;2023-03-26T09:01:50;100382.00;;;7.73;100.00
5996;BME280;3026;53.612;7.278;2023-03-26T09:07:53;100389.84;;;7.84;100.00
5996;BME280;3026;53.612;7.278;2023-03-26T09:10:46;100385.44;;;7.83;100.00
5996;BME280;3026;53.612;7.278;2023-03-26T09:16:43;100389.34;;;7.80;100.00
5996;BME280;3026;53.612;7.278;2023-03-26T09:22:40;100401.41;;;7.94;100.00
5996;BME280;3026;53.612;7.278;2023-03-26T09:25:24;100398.38;;;8.05;100.00
5996;BME280;3026;53.612;7.278;2023-03-26T09:28:17;100401.81;;;8.24;100.00
5996;BME280;3026;53.612;7.278;2023-03-26T09:31:07;100410.16;;;8.38;100.00
5996;BME280;3026;53.612;7.278;2023-03-26T09:33:51;100406.25;;;8.49;100.00
5996;BME280;3026;53.612;7.278;2023-03-26T09:36:31;100394.38;;;8.58;100.00
5996;BME280;3026;53.612;7.278;2023-03-26T09:39:07;100400.81;;;8.65;100.00
5996;BME280;3026;53.612;7.278;2023-03-26T09:41:40;100395.69;;;8.78;100.00
5996;BME280;3026;53.612;7.278;2023-03-26T09:44:49;100402.16;;;8.86;100.00
5996;BME280;3026;53.612;7.278;2023-03-26T09:47:58;100406.75;;;8.85;100.00
5996;BME280;3026;53.612;7.278;2023-03-26T09:50:47;100407.59;;;8.86;100.00
5996;BME280;3026;53.612;7.278;2023-03-26T09:53:44;100408.63;;;8.93;100.00
5996;BME280;3026;53.612;7.278;2023-03-26T09:56:22;100405.88;;;9.01;100.00
5996;BME280;3026;53.612;7.278;2023-03-26T10:01:56;100403.78;;;9.19;100.00
5996;BME280;3026;53.612;7.278;2023-03-26T10:04:43;100408.19;;;9.28;100.00
5996;BME280;3026;53.612;7.278;2023-03-26T10:07:25;100401.72;;;9.29;100.00
5996;BME280;3026;53.612;7.278;2023-03-26T10:10:00;100417.34;;;9.35;100.00
5996;BME280;3026;53.612;7.278;2023-03-26T10:12:32;100418.16;;;9.44;100.00
5996;BME280;3026;53.612;7.278;2023-03-26T10:15:13;100415.78;;;9.49;100.00
5996;BME280;3026;53.612;7.278;2023-03-26T10:17:55;100427.50;;;9.50;100.00
5996;BME280;3026;53.612;7.278;2023-03-26T10:20:35;100415.53;;;9.59;100.00
5996;BME280;3026;53.612;7.278;2023-03-26T10:23:38;100422.63;;;9.76;100.00
5996;BME280;3026;53.612;7.278;2023-03-26T10:26:20;100419.16;;;9.90;100.00
5996;BME280;3026;53.612;7.278;2023-03-26T10:29:07;100409.59;;;9.94;100.00
5996;BME280;3026;53.612;7.278;2023-03-26T10:31:46;100421.47;;;10.02;100.00
5996;BME280;3026;53.612;7.278;2023-03-26T10:34:29;100427.13;;;9.92;100.00
5996;BME280;3026;53.612;7.278;2023-03-26T10:37:09;100422.75;;;9.83;100.00
5996;BME280;3026;53.612;7.278;2023-03-26T10:45:29;100431.00;;;9.67;100.00
5996;BME280;3026;53.612;7.278;2023-03-26T10:48:11;100419.94;;;9.68;100.00
5996;BME280;3026;53.612;7.278;2023-03-26T10:51:03;100426.22;;;9.69;100.00
5996;BME280;3026;53.612;7.278;2023-03-26T10:53:37;100420.13;;;9.98;100.00
5996;BME280;3026;53.612;7.278;2023-03-26T10:56:21;100431.22;;;10.27;100.00
5996;BME280;3026;53.612;7.278;2023-03-26T10:58:49;100428.06;;;10.38;100.00
5996;BME280;3026;53.612;7.278;2023-03-26T11:01:25;100434.78;;;10.50;100.00
5996;BME280;3026;53.612;7.278;2023-03-26T11:03:59;100431.28;;;10.42;100.00
5996;BME280;3026;53.612;7.278;2023-03-26T11:06:36;100438.31;;;10.36;100.00
5996;BME280;3026;53.612;7.278;2023-03-26T11:09:17;100446.84;;;10.33;100.00
5996;BME280;3026;53.612;7.278;2023-03-26T11:11:53;100442.09;;;10.27;100.00
5996;BME280;3026;53.612;7.278;2023-03-26T11:14:30;100435.09;;;10.33;100.00
5996;BME280;3026;53.612;7.278;2023-03-26T11:17:04;100448.13;;;10.45;100.00
5996;BME280;3026;53.612;7.278;2023-03-26T11:19:40;100443.69;;;10.67;100.00
5996;BME280;3026;53.612;7.278;2023-03-26T11:22:19;100441.38;;;10.79;100.00
5996;BME280;3026;53.612;7.278;2023-03-26T11:25:23;100444.25;;;11.00;100.00
5996;BME280;3026;53.612;7.278;2023-03-26T11:28:02;100440.13;;;11.04;100.00
5996;BME280;3026;53.612;7.278;2023-03-26T11:30:39;100444.81;;;11.10;100.00
5996;BME280;3026;53.612;7.278;2023-03-26T11:33:10;100442.94;;;11.11;100.00
5996;BME280;3026;53.612;7.278;2023-03-26T11:35:41;100453.31;;;11.16;100.00
5996;BME280;3026;53.612;7.278;2023-03-26T11:38:17;100447.69;;;11.32;100.00
5996;BME280;3026;53.612;7.278;2023-03-26T11:40:49;100448.44;;;11.55;100.00
5996;BME280;3026;53.612;7.278;2023-03-26T11:43:21;100450.63;;;11.60;100.00
5996;BME280;3026;53.612;7.278;2023-03-26T11:45:50;100453.16;;;11.61;100.00
5996;BME280;3026;53.612;7.278;2023-03-26T11:48:22;100453.16;;;11.61;100.00
5996;BME280;3026;53.612;7.278;2023-03-26T11:50:54;100458.44;;;11.48;100.00
5996;BME280;3026;53.612;7.278;2023-03-26T11:53:27;100457.28;;;11.43;100.00
5996;BME280;3026;53.612;7.278;2023-03-26T11:55:58;100461.63;;;11.37;100.00
5996;BME280;3026;53.612;7.278;2023-03-26T11:58:29;100463.22;;;11.31;100.00
5996;BME280;3026;53.612;7.278;2023-03-26T12:01:02;100457.22;;;11.36;100.00
5996;BME280;3026;53.612;7.278;2023-03-26T12:03:29;100462.75;;;11.28;100.00
5996;BME280;3026;53.612;7.278;2023-03-26T12:05:58;100462.16;;;11.18;100.00
5996;BME280;3026;53.612;7.278;2023-03-26T12:08:32;100468.50;;;10.95;100.00
5996;BME280;3026;53.612;7.278;2023-03-26T12:11:04;100470.34;;;10.80;100.00
5996;BME280;3026;53.612;7.278;2023-03-26T12:13:35;100474.53;;;10.68;100.00
5996;BME280;3026;53.612;7.278;2023-03-26T12:16:10;100460.53;;;10.48;100.00
5996;BME280;3026;53.612;7.278;2023-03-26T12:18:38;100472.22;;;10.34;100.00
5996;BME280;3026;53.612;7.278;2023-03-26T12:21:08;100471.06;;;10.28;100.00
5996;BME280;3026;53.612;7.278;2023-03-26T12:23:49;100487.06;;;10.31;100.00
5996;BME280;3026;53.612;7.278;2023-03-26T12:26:18;100479.56;;;10.33;100.00
5996;BME280;3026;53.612;7.278;2023-03-26T12:28:47;100488.03;;;10.38;100.00
5996;BME280;3026;53.612;7.278;2023-03-26T12:31:15;100490.09;;;10.36;100.00
5996;BME280;3026;53.612;7.278;2023-03-26T12:33:45;100490.81;;;10.53;100.00
5996;BME280;3026;53.612;7.278;2023-03-26T12:36:20;100480.16;;;10.89;100.00
5996;BME280;3026;53.612;7.278;2023-03-26T12:38:51;100486.56;;;10.96;100.00
5996;BME280;3026;53.612;7.278;2023-03-26T12:41:20;100488.84;;;11.07;100.00
5996;BME280;3026;53.612;7.278;2023-03-26T12:43:48;100493.03;;;11.33;100.00
5996;BME280;3026;53.612;7.278;2023-03-26T12:46:23;100490.81;;;11.51;100.00
5996;BME280;3026;53.612;7.278;2023-03-26T12:48:52;100492.03;;;11.63;100.00
5996;BME280;3026;53.612;7.278;2023-03-26T12:51:35;100485.72;;;11.78;100.00
5996;BME280;3026;53.612;7.278;2023-03-26T12:54:18;100495.16;;;11.90;100.00
5996;BME280;3026;53.612;7.278;2023-03-26T12:56:59;100497.63;;;11.85;100.00
5996;BME280;3026;53.612;7.278;2023-03-26T12:59:42;100495.81;;;12.07;100.00
5996;BME280;3026;53.612;7.278;2023-03-26T13:02:53;100510.34;;;12.07;100.00
5996;BME280;3026;53.612;7.278;2023-03-26T13:05:47;100507.97;;;12.19;100.00
5996;BME280;3026;53.612;7.278;2023-03-26T13:08:30;100519.81;;;12.41;100.00
5996;BME280;3026;53.612;7.278;2023-03-26T13:11:06;100505.09;;;12.27;100.00
5996;BME280;3026;53.612;7.278;2023-03-26T13:13:59;100508.91;;;12.11;100.00
5996;BME280;3026;53.612;7.278;2023-03-26T13:16:35;100500.06;;;12.09;100.00
5996;BME280;3026;53.612;7.278;2023-03-26T13:19:08;100511.00;;;12.09;100.00
5996;BME280;3026;53.612;7.278;2023-03-26T13:21:45;100522.22;;;12.00;100.00
5996;BME280;3026;53.612;7.278;2023-03-26T13:24:24;100516.72;;;12.14;100.00
5996;BME280;3026;53.612;7.278;2023-03-26T13:27:02;100519.56;;;12.21;100.00
5996;BME280;3026;53.612;7.278;2023-03-26T13:29:38;100519.28;;;12.01;100.00
5996;BME280;3026;53.612;7.278;2023-03-26T13:32:13;100514.38;;;12.11;100.00
5996;BME280;3026;53.612;7.278;2023-03-26T13:34:58;100504.38;;;12.18;100.00
5996;BME280;3026;53.612;7.278;2023-03-26T13:37:35;100514.56;;;12.10;99.80
5996;BME280;3026;53.612;7.278;2023-03-26T13:40:18;100510.81;;;11.96;98.79
5996;BME280;3026;53.612;7.278;2023-03-26T13:43:09;100517.59;;;12.00;99.57
5996;BME280;3026;53.612;7.278;2023-03-26T13:45:53;100511.22;;;11.93;100.00
5996;BME280;3026;53.612;7.278;2023-03-26T13:48:25;100519.41;;;11.93;100.00
5996;BME280;3026;53.612;7.278;2023-03-26T13:50:59;100517.88;;;11.90;100.00
5996;BME280;3026;53.612;7.278;2023-03-26T13:53:32;100514.75;;;12.08;100.00
5996;BME280;3026;53.612;7.278;2023-03-26T13:56:03;100515.88;;;12.29;100.00
5996;BME280;3026;53.612;7.278;2023-03-26T13:58:34;100515.88;;;12.29;99.55
5996;BME280;3026;53.612;7.278;2023-03-26T14:01:06;100521.25;;;12.22;99.32
5996;BME280;3026;53.612;7.278;2023-03-26T14:03:42;100515.38;;;12.25;99.74
5996;BME280;3026;53.612;7.278;2023-03-26T14:06:34;100534.25;;;12.20;98.22